createdAt,value
2018-05-15T00:00:35.106Z,11.15
2018-05-15T00:01:35.087Z,11.10
2018-05-15T00:02:35.038Z,11.10
2018-05-15T00:03:35.004Z,11.17
2018-05-15T00:04:34.960Z,11.18
2018-05-15T00:05:34.953Z,11.21
2018-05-15T00:06:34.899Z,11.19
2018-05-15T00:07:34.862Z,11.18
2018-05-15T00:08:34.831Z,11.19
2018-05-15T00:09:34.803Z,11.10
2018-05-15T00:10:34.772Z,10.99
2018-05-15T00:11:34.712Z,10.85
2018-05-15T00:12:34.693Z,10.78
2018-05-15T00:13:34.647Z,10.73
2018-05-15T00:14:34.603Z,10.66
2018-05-15T00:15:34.574Z,10.71
2018-05-15T00:16:34.524Z,10.70
2018-05-15T00:17:34.502Z,10.61
2018-05-15T00:18:34.451Z,10.61
2018-05-15T00:19:34.425Z,10.60
2018-05-15T00:20:34.416Z,10.73
2018-05-15T00:21:34.347Z,10.63
2018-05-15T00:22:34.311Z,10.70
2018-05-15T00:23:34.329Z,10.64
2018-05-15T00:24:34.271Z,10.53
2018-05-15T00:25:34.212Z,10.53
2018-05-15T00:26:34.172Z,10.60
2018-05-15T00:27:34.161Z,10.55
2018-05-15T00:28:34.107Z,10.47
2018-05-15T00:29:34.079Z,10.36
2018-05-15T00:30:34.016Z,10.30
2018-05-15T00:31:34.005Z,10.23
2018-05-15T00:32:33.944Z,10.30
2018-05-15T00:33:33.946Z,10.25
2018-05-15T00:34:33.861Z,10.26
2018-05-15T00:35:33.829Z,10.18
2018-05-15T00:36:33.799Z,10.09
2018-05-15T00:37:33.753Z,10.01
2018-05-15T00:38:33.729Z,9.78
2018-05-15T00:39:33.679Z,9.81
2018-05-15T00:40:33.665Z,9.83
2018-05-15T00:41:33.631Z,9.99
2018-05-15T00:42:33.575Z,10.05
2018-05-15T00:43:33.544Z,10.08
2018-05-15T00:44:33.494Z,10.41
2018-05-15T00:45:33.471Z,10.41
2018-05-15T00:46:33.440Z,10.45
2018-05-15T00:47:33.395Z,10.53
2018-05-15T00:48:33.342Z,10.42
2018-05-15T00:49:33.314Z,10.64
2018-05-15T00:50:33.267Z,10.60
2018-05-15T00:51:33.240Z,10.59
2018-05-15T00:52:33.197Z,10.67
2018-05-15T00:53:33.168Z,10.66
2018-05-15T00:54:33.125Z,10.67
2018-05-15T00:55:33.091Z,10.61
2018-05-15T00:56:33.089Z,10.52
2018-05-15T00:57:33.013Z,10.48
2018-05-15T00:58:32.994Z,10.42
2018-05-15T00:59:32.942Z,10.34
2018-05-15T01:00:32.928Z,10.36
2018-05-15T01:01:32.882Z,10.34
2018-05-15T01:02:32.833Z,10.41
2018-05-15T01:03:32.800Z,10.26
2018-05-15T01:04:32.758Z,10.26
2018-05-15T01:05:32.716Z,10.33
2018-05-15T01:06:32.686Z,10.25
2018-05-15T01:07:32.649Z,10.33
2018-05-15T01:08:32.635Z,10.29
2018-05-15T01:09:32.575Z,10.26
2018-05-15T01:10:32.537Z,10.12
2018-05-15T01:11:32.490Z,10.12
2018-05-15T01:12:32.460Z,10.11
2018-05-15T01:13:32.459Z,9.99
2018-05-15T01:14:32.388Z,10.17
2018-05-15T01:15:32.347Z,10.25
2018-05-15T01:16:32.307Z,10.23
2018-05-15T01:17:32.287Z,10.25
2018-05-15T01:18:32.271Z,10.23
2018-05-15T01:19:32.200Z,10.32
2018-05-15T01:20:32.246Z,10.25
2018-05-15T01:21:32.119Z,10.36
2018-05-15T01:22:32.097Z,10.38
2018-05-15T01:23:32.050Z,10.36
2018-05-15T01:24:32.028Z,10.45
2018-05-15T01:25:31.979Z,10.34
2018-05-15T01:26:31.934Z,10.44
2018-05-15T01:27:31.904Z,10.52
2018-05-15T01:28:31.876Z,10.42
2018-05-15T01:29:31.822Z,10.45
2018-05-15T01:30:31.822Z,10.51
2018-05-15T01:31:31.778Z,10.42
2018-05-15T01:32:31.733Z,10.52
2018-05-15T01:33:31.702Z,10.40
2018-05-15T01:34:31.633Z,10.25
2018-05-15T01:35:31.611Z,10.33
2018-05-15T01:36:31.566Z,10.32
2018-05-15T01:37:31.531Z,10.26
2018-05-15T01:38:31.508Z,10.04
2018-05-15T01:39:31.449Z,9.96
2018-05-15T01:40:31.414Z,9.94
2018-05-15T01:41:31.371Z,9.93
2018-05-15T01:42:31.341Z,9.75
2018-05-15T01:43:31.295Z,9.61
2018-05-15T01:44:31.290Z,9.39
2018-05-15T01:45:31.837Z,9.36
2018-05-15T01:46:31.190Z,9.43
2018-05-15T01:47:31.156Z,9.51
2018-05-15T01:48:31.111Z,9.47
2018-05-15T01:49:31.060Z,9.75
2018-05-15T01:50:31.058Z,9.83
2018-05-15T01:51:30.983Z,9.79
2018-05-15T01:52:30.966Z,9.96
2018-05-15T01:53:30.919Z,10.08
2018-05-15T01:54:30.882Z,9.99
2018-05-15T01:55:30.847Z,9.91
2018-05-15T01:56:30.812Z,9.94
2018-05-15T01:57:30.805Z,9.86
2018-05-15T01:58:30.753Z,9.86
2018-05-15T01:59:30.709Z,9.71
2018-05-15T02:00:30.675Z,9.71
2018-05-15T02:01:30.643Z,9.61
2018-05-15T02:02:30.579Z,9.56
2018-05-15T02:03:30.557Z,9.61
2018-05-15T02:04:30.505Z,9.57
2018-05-15T02:05:30.478Z,9.51
2018-05-15T02:06:30.447Z,9.39
2018-05-15T02:07:30.401Z,9.32
2018-05-15T02:08:30.386Z,9.29
2018-05-15T02:09:30.336Z,9.18
2018-05-15T02:10:30.323Z,9.18
2018-05-15T02:11:30.293Z,8.94
2018-05-15T02:12:30.222Z,8.96
2018-05-15T02:13:30.187Z,9.11
2018-05-15T02:14:30.153Z,9.14
2018-05-15T02:15:30.140Z,9.38
2018-05-15T02:16:30.850Z,9.56
2018-05-15T02:17:30.095Z,9.51
2018-05-15T02:18:29.992Z,9.53
2018-05-15T02:19:29.958Z,9.47
2018-05-15T02:20:29.934Z,9.33
2018-05-15T02:21:29.889Z,9.28
2018-05-15T02:22:29.841Z,9.35
2018-05-15T02:23:29.824Z,9.51
2018-05-15T02:24:29.782Z,9.56
2018-05-15T02:25:29.742Z,9.71
2018-05-15T02:26:29.689Z,9.71
2018-05-15T02:27:29.693Z,9.56
2018-05-15T02:28:29.617Z,9.38
2018-05-15T02:29:29.575Z,9.23
2018-05-15T02:30:29.645Z,9.32
2018-05-15T02:31:29.514Z,9.31
2018-05-15T02:32:29.464Z,9.29
2018-05-15T02:33:29.433Z,9.40
2018-05-15T02:34:29.383Z,9.39
2018-05-15T02:35:29.407Z,9.46
2018-05-15T02:36:29.321Z,9.53
2018-05-15T02:37:29.308Z,9.58
2018-05-15T02:38:29.280Z,9.54
2018-05-15T02:39:29.206Z,9.47
2018-05-15T02:40:29.197Z,9.33
2018-05-15T02:41:29.148Z,9.39
2018-05-15T02:42:29.082Z,9.38
2018-05-15T02:43:29.079Z,9.17
2018-05-15T02:44:29.020Z,9.28
2018-05-15T02:45:29.004Z,9.28
2018-05-15T02:46:28.987Z,9.23
2018-05-15T02:47:28.906Z,9.26
2018-05-15T02:48:28.849Z,9.18
2018-05-15T02:49:28.833Z,8.94
2018-05-15T02:50:28.780Z,8.87
2018-05-15T02:51:28.748Z,8.80
2018-05-15T02:52:28.730Z,8.86
2018-05-15T02:53:28.661Z,8.81
2018-05-15T02:54:28.649Z,8.83
2018-05-15T02:55:28.584Z,8.94
2018-05-15T02:56:28.546Z,9.02
2018-05-15T02:57:28.571Z,9.13
2018-05-15T02:58:28.500Z,9.23
2018-05-15T02:59:28.465Z,9.23
2018-05-15T03:00:28.405Z,9.13
2018-05-15T03:01:28.377Z,9.05
2018-05-15T03:02:28.869Z,9.15
2018-05-15T03:03:28.317Z,9.32
2018-05-15T03:04:28.272Z,9.35
2018-05-15T03:05:28.217Z,9.32
2018-05-15T03:06:28.168Z,9.32
2018-05-15T03:07:28.142Z,9.33
2018-05-15T03:08:28.123Z,9.35
2018-05-15T03:09:28.072Z,9.40
2018-05-15T03:10:28.052Z,9.35
2018-05-15T03:11:28.015Z,9.33
2018-05-15T03:12:27.939Z,9.38
2018-05-15T03:13:27.925Z,9.40
2018-05-15T03:14:27.895Z,9.32
2018-05-15T03:15:27.866Z,9.29
2018-05-15T03:16:27.785Z,9.14
2018-05-15T03:17:27.789Z,8.92
2018-05-15T03:18:27.722Z,8.86
2018-05-15T03:19:27.703Z,8.61
2018-05-15T03:20:27.635Z,8.52
2018-05-15T03:21:27.589Z,8.33
2018-05-15T03:22:27.574Z,8.25
2018-05-15T03:23:27.517Z,8.20
2018-05-15T03:24:27.534Z,8.44
2018-05-15T03:25:27.439Z,8.58
2018-05-15T03:26:27.452Z,8.80
2018-05-15T03:27:27.389Z,8.76
2018-05-15T03:28:27.371Z,8.86
2018-05-15T03:29:27.317Z,8.80
2018-05-15T03:30:27.275Z,8.86
2018-05-15T03:31:27.257Z,8.77
2018-05-15T03:32:27.211Z,8.76
2018-05-15T03:33:27.188Z,8.56
2018-05-15T03:34:27.151Z,8.45
2018-05-15T03:35:27.088Z,8.25
2018-05-15T03:36:27.092Z,8.41
2018-05-15T03:37:26.992Z,8.47
2018-05-15T03:38:26.990Z,8.26
2018-05-15T03:39:26.951Z,8.19
2018-05-15T03:40:26.905Z,8.01
2018-05-15T03:41:26.834Z,7.92
2018-05-15T03:42:26.810Z,7.93
2018-05-15T03:43:27.363Z,7.71
2018-05-15T03:44:26.730Z,7.61
2018-05-15T03:45:26.733Z,7.58
2018-05-15T03:46:26.631Z,7.60
2018-05-15T03:47:26.617Z,7.52
2018-05-15T03:48:26.626Z,7.43
2018-05-15T03:49:26.550Z,7.28
2018-05-15T03:50:26.516Z,7.30
2018-05-15T03:51:26.497Z,7.20
2018-05-15T03:52:26.445Z,7.23
2018-05-15T03:53:26.399Z,7.43
2018-05-15T03:54:26.342Z,7.30
2018-05-15T03:55:26.345Z,7.27
2018-05-15T03:56:26.278Z,7.21
2018-05-15T03:57:26.259Z,7.09
2018-05-15T03:58:26.222Z,7.07
2018-05-15T03:59:26.176Z,7.10
2018-05-15T04:00:26.101Z,7.05
2018-05-15T04:01:26.096Z,7.06
2018-05-15T04:02:26.052Z,7.06
2018-05-15T04:03:26.072Z,7.23
2018-05-15T04:04:25.963Z,7.40
2018-05-15T04:05:25.928Z,7.45
2018-05-15T04:06:25.919Z,7.40
2018-05-15T04:07:25.848Z,7.35
2018-05-15T04:08:25.794Z,7.37
2018-05-15T04:09:25.770Z,7.31
2018-05-15T04:10:25.772Z,7.21
2018-05-15T04:11:25.676Z,7.07
2018-05-15T04:12:25.659Z,7.09
2018-05-15T04:13:25.637Z,7.09
2018-05-15T04:14:25.590Z,7.06
2018-05-15T04:15:25.569Z,7.23
2018-05-15T04:16:25.491Z,7.42
2018-05-15T04:17:25.550Z,7.46
2018-05-15T04:18:25.440Z,7.50
2018-05-15T04:19:25.395Z,7.52
2018-05-15T04:20:25.372Z,7.64
2018-05-15T04:21:25.304Z,7.69
2018-05-15T04:22:25.270Z,7.69
2018-05-15T04:23:25.269Z,7.74
2018-05-15T04:24:25.253Z,7.68
2018-05-15T04:25:25.141Z,7.64
2018-05-15T04:26:25.111Z,7.71
2018-05-15T04:27:25.075Z,7.71
2018-05-15T04:28:25.070Z,7.77
2018-05-15T04:29:25.025Z,7.72
2018-05-15T04:30:24.968Z,7.79
2018-05-15T04:31:24.926Z,7.90
2018-05-15T04:32:24.903Z,7.86
2018-05-15T04:33:24.840Z,7.92
2018-05-15T04:34:24.818Z,8.02
2018-05-15T04:35:24.806Z,8.01
2018-05-15T04:36:24.718Z,7.98
2018-05-15T04:37:24.708Z,7.98
2018-05-15T04:38:24.659Z,8.00
2018-05-15T04:39:26.463Z,8.05
2018-05-15T04:40:24.570Z,7.98
2018-05-15T04:41:24.556Z,8.04
2018-05-15T04:42:24.506Z,8.15
2018-05-15T04:43:24.467Z,8.25
2018-05-15T04:44:24.461Z,8.22
2018-05-15T04:45:24.400Z,8.23
2018-05-15T04:46:24.351Z,8.45
2018-05-15T04:47:24.363Z,8.55
2018-05-15T04:48:24.270Z,8.52
2018-05-15T04:49:24.262Z,8.56
2018-05-15T04:50:24.202Z,8.48
2018-05-15T04:51:24.197Z,8.58
2018-05-15T04:52:24.124Z,8.66
2018-05-15T04:53:24.079Z,8.63
2018-05-15T04:54:24.057Z,8.84
2018-05-15T04:55:24.032Z,8.94
2018-05-15T04:56:23.976Z,8.92
2018-05-15T04:57:23.931Z,9.11
2018-05-15T04:58:23.918Z,9.23
2018-05-15T04:59:23.884Z,9.38
2018-05-15T05:00:23.829Z,9.58
2018-05-15T05:01:23.790Z,9.69
2018-05-15T05:02:23.741Z,9.81
2018-05-15T05:03:23.695Z,9.97
2018-05-15T05:04:23.679Z,10.23
2018-05-15T05:05:23.620Z,10.38
2018-05-15T05:06:23.595Z,10.60
2018-05-15T05:07:23.585Z,10.92
2018-05-15T05:08:23.534Z,11.22
2018-05-15T05:09:23.546Z,11.52
2018-05-15T05:10:23.482Z,11.88
2018-05-15T05:11:23.459Z,12.23
2018-05-15T05:12:23.440Z,12.64
2018-05-15T05:13:23.377Z,12.64
2018-05-15T05:14:23.319Z,12.87
2018-05-15T05:15:23.355Z,13.15
2018-05-15T05:16:23.261Z,13.63
2018-05-15T05:17:23.194Z,14.40
2018-05-15T05:18:23.170Z,15.17
2018-05-15T05:19:23.119Z,15.54
2018-05-15T05:20:23.128Z,15.56
2018-05-15T05:21:23.056Z,15.14
2018-05-15T05:22:23.050Z,14.78
2018-05-15T05:23:23.029Z,14.25
2018-05-15T05:24:23.005Z,13.89
2018-05-15T05:25:22.921Z,13.42
2018-05-15T05:26:22.875Z,13.15
2018-05-15T05:27:22.918Z,13.07
2018-05-15T05:28:22.811Z,13.11
2018-05-15T05:29:22.792Z,13.20
2018-05-15T05:30:22.766Z,13.36
2018-05-15T05:31:22.724Z,13.55
2018-05-15T05:32:22.669Z,13.81
2018-05-15T05:33:22.770Z,13.81
2018-05-15T05:34:22.620Z,13.73
2018-05-15T05:35:22.612Z,13.44
2018-05-15T05:36:22.595Z,13.29
2018-05-15T05:37:22.497Z,13.38
2018-05-15T05:38:22.482Z,13.08
2018-05-15T05:39:22.449Z,12.75
2018-05-15T05:40:22.414Z,12.60
2018-05-15T05:41:22.384Z,12.39
2018-05-15T05:42:22.338Z,12.27
2018-05-15T05:43:22.301Z,12.64
2018-05-15T05:44:22.281Z,12.71
2018-05-15T05:45:22.261Z,12.89
2018-05-15T05:46:22.235Z,13.07
2018-05-15T05:47:22.170Z,13.07
2018-05-15T05:48:22.134Z,13.25
2018-05-15T05:49:22.110Z,13.15
2018-05-15T05:50:22.067Z,13.28
2018-05-15T05:51:22.058Z,13.42
2018-05-15T05:52:22.008Z,13.64
2018-05-15T05:53:21.981Z,13.46
2018-05-15T05:54:21.948Z,13.60
2018-05-15T05:55:21.909Z,13.97
2018-05-15T05:56:21.888Z,14.12
2018-05-15T05:57:21.836Z,13.85
2018-05-15T05:58:21.794Z,14.10
2018-05-15T05:59:21.761Z,14.32
2018-05-15T06:00:21.728Z,14.45
2018-05-15T06:01:21.728Z,14.55
2018-05-15T06:02:21.670Z,14.24
2018-05-15T06:03:21.636Z,14.43
2018-05-15T06:04:21.597Z,14.51
2018-05-15T06:05:21.558Z,14.61
2018-05-15T06:06:23.492Z,14.73
2018-05-15T06:07:21.623Z,14.75
2018-05-15T06:08:21.496Z,14.99
2018-05-15T06:09:21.422Z,15.01
2018-05-15T06:10:21.417Z,15.01
2018-05-15T06:11:21.395Z,14.98
2018-05-15T06:12:21.325Z,14.96
2018-05-15T06:13:21.314Z,14.86
2018-05-15T06:14:21.360Z,15.13
2018-05-15T06:15:21.257Z,15.16
2018-05-15T06:16:21.229Z,15.06
2018-05-15T06:17:21.216Z,14.96
2018-05-15T06:18:21.136Z,15.14
2018-05-15T06:19:21.098Z,15.19
2018-05-15T06:20:21.076Z,15.11
2018-05-15T06:21:21.114Z,15.27
2018-05-15T06:22:21.035Z,15.32
2018-05-15T06:23:20.961Z,15.43
2018-05-15T06:24:20.965Z,15.32
2018-05-15T06:25:20.930Z,15.54
2018-05-15T06:26:20.879Z,15.75
2018-05-15T06:27:20.855Z,15.82
2018-05-15T06:28:20.813Z,15.68
2018-05-15T06:29:20.791Z,15.86
2018-05-15T06:30:21.410Z,15.92
2018-05-15T06:31:20.724Z,15.76
2018-05-15T06:32:20.740Z,16.01
2018-05-15T06:33:20.716Z,16.07
2018-05-15T06:34:20.607Z,15.71
2018-05-15T06:35:20.570Z,15.75
2018-05-15T06:36:20.584Z,15.75
2018-05-15T06:37:20.506Z,16.15
2018-05-15T06:38:20.495Z,16.58
2018-05-15T06:39:20.559Z,16.94
2018-05-15T06:40:20.444Z,16.86
2018-05-15T06:41:20.414Z,17.14
2018-05-15T06:42:20.355Z,17.25
2018-05-15T06:43:20.313Z,17.25
2018-05-15T06:44:20.310Z,17.36
2018-05-15T06:45:20.266Z,17.33
2018-05-15T06:46:20.221Z,17.64
2018-05-15T06:47:20.189Z,17.36
2018-05-15T06:48:20.189Z,17.33
2018-05-15T06:49:20.143Z,17.22
2018-05-15T06:50:20.108Z,17.14
2018-05-15T06:51:20.062Z,17.34
2018-05-15T06:52:20.033Z,17.51
2018-05-15T06:53:19.995Z,17.58
2018-05-15T06:54:19.989Z,17.18
2018-05-15T06:55:19.942Z,17.59
2018-05-15T06:56:19.928Z,17.92
2018-05-15T06:57:19.876Z,17.79
2018-05-15T06:58:19.933Z,17.96
2018-05-15T06:59:19.818Z,17.95
2018-05-15T07:00:19.798Z,17.96
2018-05-15T07:01:19.836Z,18.00
2018-05-15T07:02:19.748Z,18.03
2018-05-15T07:03:19.736Z,18.23
2018-05-15T07:04:19.688Z,17.72
2018-05-15T07:05:19.650Z,17.93
2018-05-15T07:06:19.682Z,17.79
2018-05-15T07:07:19.562Z,17.92
2018-05-15T07:08:19.612Z,17.99
2018-05-15T07:09:19.524Z,18.25
2018-05-15T07:10:19.484Z,18.60
2018-05-15T07:11:19.444Z,19.77
2018-05-15T07:12:19.449Z,20.74
2018-05-15T07:13:19.437Z,20.64
2018-05-15T07:14:19.366Z,20.70
2018-05-15T07:15:19.349Z,20.35
2018-05-15T07:16:19.302Z,19.87
2018-05-15T07:17:19.273Z,20.10
2018-05-15T07:18:19.261Z,20.84
2018-05-15T07:19:19.203Z,20.62
2018-05-15T07:20:19.184Z,20.76
2018-05-15T07:21:19.159Z,21.35
2018-05-15T07:22:19.128Z,21.84
2018-05-15T07:23:19.108Z,21.46
2018-05-15T07:24:19.104Z,20.67
2018-05-15T07:25:19.062Z,20.21
2018-05-15T07:26:19.053Z,20.08
2018-05-15T07:27:19.092Z,18.58
2018-05-15T07:28:18.969Z,18.91
2018-05-15T07:29:18.971Z,19.11
2018-05-15T07:30:18.934Z,18.62
2018-05-15T07:31:18.881Z,18.32
2018-05-15T07:32:18.852Z,17.87
2018-05-15T07:33:18.829Z,17.99
2018-05-15T07:34:18.792Z,17.81
2018-05-15T07:35:18.784Z,18.02
2018-05-15T07:36:18.757Z,18.14
2018-05-15T07:37:18.723Z,18.51
2018-05-15T07:38:18.709Z,18.57
2018-05-15T07:39:18.669Z,18.52
2018-05-15T07:40:18.679Z,18.02
2018-05-15T07:41:18.618Z,17.87
2018-05-15T07:42:18.575Z,18.05
2018-05-15T07:43:18.557Z,17.92
2018-05-15T07:44:18.519Z,17.78
2018-05-15T07:45:18.515Z,17.95
2018-05-15T07:46:18.466Z,18.36
2018-05-15T07:47:18.472Z,18.69
2018-05-15T07:48:18.429Z,18.58
2018-05-15T07:49:18.385Z,18.36
2018-05-15T07:50:18.368Z,18.41
2018-05-15T07:51:18.354Z,18.54
2018-05-15T07:52:18.296Z,18.58
2018-05-15T07:53:18.284Z,18.57
2018-05-15T07:54:18.245Z,18.60
2018-05-15T07:55:18.198Z,18.39
2018-05-15T07:56:18.185Z,18.10
2018-05-15T07:57:18.167Z,17.92
2018-05-15T07:58:18.144Z,17.96
2018-05-15T07:59:18.089Z,18.00
2018-05-15T08:00:18.089Z,17.86
2018-05-15T08:01:18.095Z,17.82
2018-05-15T08:02:18.026Z,17.62
2018-05-15T08:03:17.998Z,17.89
2018-05-15T08:04:18.018Z,18.07
2018-05-15T08:05:17.919Z,18.66
2018-05-15T08:06:17.896Z,19.41
2018-05-15T08:07:17.869Z,19.80
2018-05-15T08:08:17.845Z,21.84
2018-05-15T08:09:17.822Z,21.56
2018-05-15T08:10:17.780Z,21.38
2018-05-15T08:11:17.818Z,21.10
2018-05-15T08:12:17.782Z,20.05
2018-05-15T08:13:17.705Z,20.87
2018-05-15T08:14:17.668Z,21.58
2018-05-15T08:15:17.642Z,20.99
2018-05-15T08:16:17.659Z,20.13
2018-05-15T08:17:17.585Z,19.61
2018-05-15T08:18:17.558Z,19.74
2018-05-15T08:19:17.535Z,20.02
2018-05-15T08:20:17.493Z,20.08
2018-05-15T08:21:17.497Z,20.10
2018-05-15T08:22:17.527Z,20.20
2018-05-15T08:23:17.442Z,18.92
2018-05-15T08:24:17.424Z,18.66
2018-05-15T08:25:17.382Z,18.72
2018-05-15T08:26:17.336Z,18.50
2018-05-15T08:27:17.327Z,18.50
2018-05-15T08:28:17.303Z,18.50
2018-05-15T08:29:17.259Z,18.66
2018-05-15T08:30:17.241Z,18.84
2018-05-15T08:31:17.201Z,18.94
2018-05-15T08:32:17.166Z,18.75
2018-05-15T08:33:17.141Z,19.28
2018-05-15T08:34:17.118Z,19.02
2018-05-15T08:35:17.126Z,18.87
2018-05-15T08:36:17.083Z,19.77
2018-05-15T08:37:17.061Z,19.16
2018-05-15T08:38:16.997Z,19.39
2018-05-15T08:39:16.969Z,19.81
2018-05-15T08:40:16.972Z,20.55
2018-05-15T08:41:16.916Z,20.64
2018-05-15T08:42:16.894Z,20.94
2018-05-15T08:43:16.923Z,20.95
2018-05-15T08:44:16.854Z,20.58
2018-05-15T08:45:16.821Z,19.98
2018-05-15T08:46:16.818Z,19.44
2018-05-15T08:47:16.747Z,19.50
2018-05-15T08:48:16.768Z,19.78
2018-05-15T08:49:16.709Z,20.03
2018-05-15T08:50:16.726Z,21.58
2018-05-15T08:51:16.666Z,20.72
2018-05-15T08:52:16.629Z,21.07
2018-05-15T08:53:16.622Z,20.43
2018-05-15T08:54:16.571Z,20.38
2018-05-15T08:55:16.572Z,20.35
2018-05-15T08:56:16.533Z,20.52
2018-05-15T08:57:16.486Z,20.70
2018-05-15T08:58:16.465Z,20.59
2018-05-15T08:59:16.445Z,20.99
2018-05-15T09:00:16.419Z,21.06
2018-05-15T09:01:16.415Z,20.84
2018-05-15T09:02:16.361Z,20.54
2018-05-15T09:03:16.324Z,19.59
2018-05-15T09:04:16.313Z,19.77
2018-05-15T09:05:16.280Z,20.05
2018-05-15T09:06:16.236Z,19.51
2018-05-15T09:07:16.220Z,19.33
2018-05-15T09:08:16.232Z,19.10
2018-05-15T09:09:16.178Z,19.18
2018-05-15T09:10:16.132Z,19.25
2018-05-15T09:11:16.128Z,19.33
2018-05-15T09:12:16.099Z,18.99
2018-05-15T09:13:16.108Z,18.88
2018-05-15T09:14:16.033Z,19.36
2018-05-15T09:15:16.040Z,19.96
2018-05-15T09:16:15.980Z,20.24
2018-05-15T09:17:15.958Z,20.51
2018-05-15T09:18:15.928Z,20.82
2018-05-15T09:19:16.027Z,20.29
2018-05-15T09:20:15.907Z,20.08
2018-05-15T09:21:15.848Z,19.96
2018-05-15T09:22:15.806Z,20.17
2018-05-15T09:23:15.788Z,19.50
2018-05-15T09:24:15.766Z,19.80
2018-05-15T09:25:15.725Z,20.21
2018-05-15T09:26:15.719Z,20.58
2018-05-15T09:27:15.675Z,20.13
2018-05-15T09:28:15.675Z,20.31
2018-05-15T09:29:15.715Z,20.43
2018-05-15T09:30:15.578Z,20.80
2018-05-15T09:31:15.576Z,20.82
2018-05-15T09:32:15.544Z,20.73
2018-05-15T09:33:15.518Z,20.61
2018-05-15T09:34:15.470Z,20.70
2018-05-15T09:35:15.441Z,20.64
2018-05-15T09:36:15.442Z,20.73
2018-05-15T09:37:15.406Z,20.55
2018-05-15T09:38:15.352Z,20.89
2018-05-15T09:39:15.350Z,21.03
2018-05-15T09:40:15.319Z,20.99
2018-05-15T09:41:15.277Z,20.99
2018-05-15T09:42:15.248Z,21.16
2018-05-15T09:43:15.262Z,21.34
2018-05-15T09:44:15.203Z,21.24
2018-05-15T09:45:15.194Z,21.13
2018-05-15T09:46:15.144Z,21.68
2018-05-15T09:47:15.137Z,21.42
2018-05-15T09:48:15.129Z,20.76
2018-05-15T09:49:15.083Z,20.66
2018-05-15T09:50:15.128Z,20.82
2018-05-15T09:51:14.999Z,20.89
2018-05-15T09:52:15.072Z,20.92
2018-05-15T09:53:14.950Z,21.01
2018-05-15T09:54:14.925Z,23.09
2018-05-15T09:55:14.918Z,24.58
2018-05-15T09:56:14.862Z,23.42
2018-05-15T09:57:14.849Z,23.51
2018-05-15T09:58:14.803Z,22.85
2018-05-15T09:59:14.813Z,23.55
2018-05-15T10:00:14.755Z,23.76
2018-05-15T10:01:14.745Z,24.52
2018-05-15T10:02:14.737Z,25.33
2018-05-15T10:03:14.676Z,24.27
2018-05-15T10:04:14.661Z,24.67
2018-05-15T10:05:14.645Z,24.73
2018-05-15T10:06:14.611Z,24.39
2018-05-15T10:07:14.592Z,24.52
2018-05-15T10:08:14.592Z,23.83
2018-05-15T10:09:14.549Z,24.37
2018-05-15T10:10:14.527Z,23.60
2018-05-15T10:11:14.503Z,23.00
2018-05-15T10:12:14.488Z,23.15
2018-05-15T10:13:14.451Z,22.60
2018-05-15T10:14:14.465Z,22.64
2018-05-15T10:15:14.401Z,22.72
2018-05-15T10:16:14.372Z,22.72
2018-05-15T10:17:14.357Z,22.52
2018-05-15T10:18:14.315Z,21.69
2018-05-15T10:19:14.294Z,20.91
2018-05-15T10:20:14.266Z,20.88
2018-05-15T10:21:14.289Z,20.91
2018-05-15T10:22:14.211Z,21.10
2018-05-15T10:23:14.212Z,21.14
2018-05-15T10:24:14.166Z,21.24
2018-05-15T10:25:14.137Z,21.16
2018-05-15T10:26:14.209Z,21.69
2018-05-15T10:27:14.100Z,22.12
2018-05-15T10:28:14.092Z,22.58
2018-05-15T10:29:14.063Z,22.31
2018-05-15T10:30:14.055Z,21.98
2018-05-15T10:31:14.024Z,21.91
2018-05-15T10:32:14.090Z,22.94
2018-05-15T10:33:13.945Z,23.31
2018-05-15T10:34:13.922Z,23.02
2018-05-15T10:35:13.919Z,23.78
2018-05-15T10:36:13.871Z,24.45
2018-05-15T10:37:13.861Z,24.49
2018-05-15T10:38:13.836Z,22.72
2018-05-15T10:39:13.797Z,21.84
2018-05-15T10:40:13.775Z,23.32
2018-05-15T10:41:14.102Z,23.54
2018-05-15T10:42:13.720Z,23.33
2018-05-15T10:43:13.715Z,23.12
2018-05-15T10:44:13.735Z,23.63
2018-05-15T10:45:13.680Z,23.19
2018-05-15T10:46:13.663Z,22.42
2018-05-15T10:47:13.604Z,21.92
2018-05-15T10:48:13.609Z,21.19
2018-05-15T10:49:13.582Z,20.97
2018-05-15T10:50:13.599Z,20.58
2018-05-15T10:51:13.518Z,20.33
2018-05-15T10:52:13.523Z,20.55
2018-05-15T10:53:13.460Z,20.70
2018-05-15T10:54:13.502Z,20.69
2018-05-15T10:55:13.441Z,21.22
2018-05-15T10:56:13.411Z,21.72
2018-05-15T10:57:13.376Z,22.79
2018-05-15T10:58:13.353Z,23.23
2018-05-15T10:59:13.318Z,24.45
2018-05-15T11:00:13.292Z,23.35
2018-05-15T11:01:13.261Z,23.25
2018-05-15T11:02:13.235Z,22.77
2018-05-15T11:03:13.229Z,21.56
2018-05-15T11:04:13.198Z,21.74
2018-05-15T11:05:13.173Z,21.37
2018-05-15T11:06:13.164Z,21.47
2018-05-15T11:07:13.168Z,20.92
2018-05-15T11:08:13.113Z,21.07
2018-05-15T11:09:13.088Z,20.95
2018-05-15T11:10:13.061Z,20.99
2018-05-15T11:11:13.033Z,20.66
2018-05-15T11:12:13.013Z,20.47
2018-05-15T11:13:12.980Z,20.64
2018-05-15T11:14:12.950Z,20.57
2018-05-15T11:15:12.917Z,19.99
2018-05-15T11:16:12.899Z,20.24
2018-05-15T11:17:12.953Z,20.10
2018-05-15T11:18:12.866Z,20.55
2018-05-15T11:19:12.832Z,20.82
2018-05-15T11:20:12.828Z,21.54
2018-05-15T11:21:12.776Z,21.53
2018-05-15T11:22:12.760Z,21.69
2018-05-15T11:23:12.718Z,21.77
2018-05-15T11:24:12.716Z,21.67
2018-05-15T11:25:12.657Z,21.44
2018-05-15T11:26:12.634Z,20.91
2018-05-15T11:27:12.620Z,20.95
2018-05-15T11:28:12.593Z,20.52
2018-05-15T11:29:12.549Z,20.11
2018-05-15T11:30:12.536Z,19.99
2018-05-15T11:31:12.501Z,19.96
2018-05-15T11:32:12.494Z,19.80
2018-05-15T11:33:12.458Z,19.84
2018-05-15T11:34:12.427Z,19.78
2018-05-15T11:35:12.429Z,19.54
2018-05-15T11:36:12.392Z,19.44
2018-05-15T11:37:12.345Z,19.29
2018-05-15T11:38:12.313Z,19.22
2018-05-15T11:39:12.296Z,19.22
2018-05-15T11:40:12.263Z,19.14
2018-05-15T11:41:12.243Z,19.26
2018-05-15T11:42:12.219Z,19.10
2018-05-15T11:43:12.201Z,19.08
2018-05-15T11:44:12.166Z,19.00
2018-05-15T11:45:12.138Z,19.11
2018-05-15T11:46:12.096Z,18.84
2018-05-15T11:47:12.131Z,18.51
2018-05-15T11:48:12.429Z,18.33
2018-05-15T11:49:12.702Z,18.15
2018-05-15T11:50:12.800Z,17.82
2018-05-15T11:51:12.797Z,17.59
2018-05-15T11:52:12.545Z,17.51
2018-05-15T11:53:12.768Z,17.36
2018-05-15T11:54:11.873Z,17.52
2018-05-15T11:55:11.848Z,17.52
2018-05-15T11:56:11.854Z,18.37
2018-05-15T11:57:11.797Z,19.59
2018-05-15T11:58:11.838Z,20.10
2018-05-15T11:59:11.741Z,20.77
2018-05-15T12:00:11.707Z,21.38
2018-05-15T12:01:11.694Z,21.90
2018-05-15T12:02:11.638Z,22.02
2018-05-15T12:03:11.628Z,21.42
2018-05-15T12:04:11.668Z,21.96
2018-05-15T12:05:12.045Z,22.00
2018-05-15T12:06:11.529Z,22.97
2018-05-15T12:07:11.487Z,23.78
2018-05-15T12:08:11.560Z,22.97
2018-05-15T12:09:11.455Z,22.43
2018-05-15T12:10:11.417Z,22.64
2018-05-15T12:11:11.393Z,22.46
2018-05-15T12:12:11.352Z,22.18
2018-05-15T12:13:11.321Z,22.24
2018-05-15T12:14:11.325Z,22.76
2018-05-15T12:15:11.336Z,22.18
2018-05-15T12:16:11.319Z,22.64
2018-05-15T12:17:11.244Z,23.04
2018-05-15T12:18:11.206Z,23.02
2018-05-15T12:19:11.183Z,23.28
2018-05-15T12:20:11.145Z,23.12
2018-05-15T12:21:11.237Z,22.80
2018-05-15T12:22:11.112Z,23.17
2018-05-15T12:23:11.072Z,23.51
2018-05-15T12:24:11.117Z,23.80
2018-05-15T12:25:11.029Z,23.69
2018-05-15T12:26:11.003Z,24.02
2018-05-15T12:27:11.019Z,24.05
2018-05-15T12:28:10.993Z,22.75
2018-05-15T12:29:10.949Z,22.90
2018-05-15T12:30:10.896Z,23.35
2018-05-15T12:31:10.882Z,23.66
2018-05-15T12:32:10.869Z,24.10
2018-05-15T12:33:10.845Z,24.53
2018-05-15T12:34:10.847Z,24.60
2018-05-15T12:35:10.805Z,24.49
2018-05-15T12:36:10.798Z,24.43
2018-05-15T12:37:10.821Z,23.78
2018-05-15T12:38:10.715Z,24.27
2018-05-15T12:39:10.696Z,23.91
2018-05-15T12:40:10.675Z,22.76
2018-05-15T12:41:10.725Z,23.36
2018-05-15T12:42:10.914Z,24.12
2018-05-15T12:43:10.614Z,24.34
2018-05-15T12:44:10.614Z,23.25
2018-05-15T12:45:10.576Z,22.68
2018-05-15T12:46:10.534Z,22.88
2018-05-15T12:47:10.526Z,22.65
2018-05-15T12:48:10.530Z,22.42
2018-05-15T12:49:10.467Z,23.38
2018-05-15T12:50:10.440Z,22.82
2018-05-15T12:51:10.416Z,23.43
2018-05-15T12:52:10.397Z,24.12
2018-05-15T12:53:10.376Z,24.39
2018-05-15T12:54:10.372Z,24.37
2018-05-15T12:55:10.328Z,23.60
2018-05-15T12:56:10.323Z,23.36
2018-05-15T12:57:10.283Z,23.09
2018-05-15T12:58:10.277Z,22.10
2018-05-15T12:59:10.244Z,22.28